Time;durP1;ratioP1;P1;durP2;ratioP2;P2;SDS_P1;SDS_P2;PMS_P1;PMS_P2;Temp;Humidity;BMP_temperature;BMP_pressure;BME280_temperature;BME280_humidity;BME280_pressure;Samples;Min_cycle;Max_cycle;Signal;HPM_P1;HPM_P2
2022/08/02 00:01:42;;;;;;;;;4.67;4.67;;;;;26.52;56.26;101621.34;5024899;28;45393;-67
2022/08/02 00:04:08;;;;;;;;;4.00;4.00;;;;;26.39;57.61;101621.50;5019248;28;45351;-66
2022/08/02 00:06:34;;;;;;;;;4.33;4.33;;;;;26.29;57.87;101624.00;5021684;28;45815;-66
2022/08/02 00:08:59;;;;;;;;;4.00;4.00;;;;;26.47;56.79;101631.50;5019422;28;46549;-66
2022/08/02 00:11:25;;;;;;;;;3.00;3.00;;;;;26.60;55.80;101620.19;5032352;28;45415;-66
2022/08/02 00:13:50;;;;;;;;;2.33;2.33;;;;;26.51;56.38;101621.63;5021908;28;45165;-67
2022/08/02 00:16:16;;;;;;;;;3.67;3.67;;;;;26.50;56.78;101605.97;5034010;28;45424;-66
2022/08/02 00:18:42;;;;;;;;;4.33;4.33;;;;;26.47;57.09;101614.78;5023649;28;45345;-67
2022/08/02 00:21:07;;;;;;;;;4.00;4.00;;;;;26.31;57.52;101616.25;5031671;28;45498;-66
2022/08/02 00:23:33;;;;;;;;;5.00;5.00;;;;;26.27;57.58;101607.50;5021290;28;45422;-66
2022/08/02 00:25:58;;;;;;;;;3.00;3.00;;;;;26.28;58.16;101611.16;5028700;28;45505;-66
2022/08/02 00:28:24;;;;;;;;;4.33;4.00;;;;;26.28;57.91;101611.16;5025175;28;45494;-66
2022/08/02 00:30:50;;;;;;;;;4.33;4.33;;;;;26.28;57.94;101609.22;5024283;28;45442;-67
2022/08/02 00:33:15;;;;;;;;;3.00;3.00;;;;;26.28;57.58;101608.38;5014054;28;45398;-66
2022/08/02 00:35:41;;;;;;;;;3.33;2.33;;;;;26.25;57.63;101611.59;5028519;28;45428;-66
2022/08/02 00:38:06;;;;;;;;;3.00;3.00;;;;;26.27;57.11;101610.31;5031727;28;46212;-66
2022/08/02 00:40:32;;;;;;;;;4.00;4.00;;;;;26.28;57.20;101617.56;5026200;28;45381;-66
2022/08/02 00:43:09;;;;;;;;;3.00;3.00;;;;;26.25;57.42;101604.09;5032874;28;45640;-66
2022/08/02 00:45:38;;;;;;;;;3.00;3.00;;;;;26.25;57.24;101606.88;5027723;28;45311;-67
2022/08/02 00:48:04;;;;;;;;;3.00;3.00;;;;;26.22;57.55;101610.13;5033717;28;45727;-66
2022/08/02 00:50:30;;;;;;;;;5.00;5.00;;;;;26.13;58.34;101607.84;5025844;28;45472;-66
2022/08/02 00:52:56;;;;;;;;;7.33;4.00;;;;;26.08;58.95;101602.13;5031399;28;45355;-66
2022/08/02 00:55:22;;;;;;;;;4.00;4.00;;;;;26.01;59.04;101606.91;5027716;28;45307;-66
2022/08/02 00:57:47;;;;;;;;;4.00;4.00;;;;;26.04;58.27;101609.22;5024269;28;45885;-66
2022/08/02 01:00:14;;;;;;;;;6.00;4.67;;;;;26.04;58.45;101612.00;5026273;28;46907;-67
2022/08/02 01:02:39;;;;;;;;;4.00;4.00;;;;;26.01;59.00;101609.69;5024194;28;45473;-67
2022/08/02 01:05:05;;;;;;;;;4.00;4.00;;;;;25.99;59.01;101607.13;5028002;28;45358;-67
2022/08/02 01:07:30;;;;;;;;;2.67;2.67;;;;;25.95;59.17;101605.88;5023643;28;46880;-67
2022/08/02 01:09:55;;;;;;;;;4.00;4.00;;;;;25.84;59.76;101609.44;5019545;28;45219;-67
2022/08/02 01:12:21;;;;;;;;;5.67;5.00;;;;;25.83;59.83;101618.84;5019915;28;45683;-67
2022/08/02 01:14:49;;;;;;;;;5.00;4.00;;;;;25.77;60.68;101616.97;5028866;28;45505;-67
2022/08/02 01:17:37;;;;;;;;;0.00;0.00;;;;;25.66;60.35;101607.44;5033993;28;46098;-66
2022/08/02 01:20:40;;;;;;;;;4.00;3.00;;;;;25.65;61.30;101616.00;5020621;28;45449;-66
2022/08/02 01:23:08;;;;;;;;;4.00;4.00;;;;;25.66;60.69;101612.13;5022617;28;45413;-66
2022/08/02 01:26:02;;;;;;;;;4.00;4.00;;;;;25.65;60.44;101622.41;5030040;28;45385;-66
2022/08/02 01:28:34;;;;;;;;;5.00;5.00;;;;;25.59;61.03;101613.06;5028509;28;46740;-66
2022/08/02 01:31:19;;;;;;;;;3.67;3.67;;;;;25.41;61.86;101612.97;5031672;28;45455;-66
2022/08/02 01:33:53;;;;;;;;;5.00;5.00;;;;;25.44;61.98;101619.97;5034195;28;45214;-66
2022/08/02 01:36:20;;;;;;;;;3.00;3.00;;;;;25.43;61.42;101624.69;5029840;28;45443;-67
2022/08/02 01:38:49;;;;;;;;;2.00;2.00;;;;;25.43;62.32;101634.97;5034638;28;45666;-66
2022/08/02 01:41:18;;;;;;;;;4.67;4.67;;;;;25.39;61.82;101628.16;5032198;28;45432;-66
2022/08/02 01:43:45;;;;;;;;;5.67;5.00;;;;;25.21;61.60;101598.31;5035649;28;45431;-66
2022/08/02 01:46:14;;;;;;;;;6.00;6.00;;;;;25.40;62.11;101618.75;5032133;28;45483;-66
2022/08/02 01:48:41;;;;;;;;;5.33;5.00;;;;;25.32;62.65;101628.22;5033664;28;45518;-66
2022/08/02 01:51:10;;;;;;;;;5.33;4.00;;;;;25.31;62.57;101632.06;5029158;28;45270;-66
2022/08/02 01:53:36;;;;;;;;;7.00;5.33;;;;;25.28;63.14;101620.56;5030852;28;45426;-66
2022/08/02 01:56:03;;;;;;;;;6.67;6.00;;;;;25.17;63.77;101622.09;5028528;28;45382;-66
2022/08/02 01:58:32;;;;;;;;;6.00;6.00;;;;;25.18;63.37;101619.09;5026670;28;45329;-67
2022/08/02 02:00:58;;;;;;;;;6.00;4.67;;;;;25.23;63.47;101621.19;5027163;28;45486;-67
2022/08/02 02:03:25;;;;;;;;;5.00;5.00;;;;;25.26;63.69;101623.56;5021956;28;45319;-67
2022/08/02 02:05:55;;;;;;;;;6.00;6.00;;;;;25.26;63.34;101618.00;5027958;28;45508;-66
2022/08/02 02:08:26;;;;;;;;;5.00;4.67;;;;;25.31;63.37;101618.16;5021058;28;46002;-66
2022/08/02 02:10:53;;;;;;;;;4.67;4.67;;;;;25.23;63.74;101607.28;5030023;28;45418;-66
2022/08/02 02:13:19;;;;;;;;;6.00;5.00;;;;;25.13;64.42;101604.16;5028027;28;45340;-66
2022/08/02 02:15:49;;;;;;;;;5.33;5.33;;;;;25.16;63.73;101606.50;5030953;28;45473;-67
2022/08/02 02:18:23;;;;;;;;;4.67;4.67;;;;;25.06;64.54;101603.31;5016725;28;48012;-66
2022/08/02 02:20:48;;;;;;;;;6.00;5.00;;;;;24.98;64.77;101603.63;5018562;28;46126;-66
2022/08/02 02:23:14;;;;;;;;;7.33;6.00;;;;;24.99;65.04;101599.75;5026912;28;45438;-67
2022/08/02 02:25:41;;;;;;;;;4.00;4.00;;;;;24.96;65.29;101597.41;5028643;28;45590;-67
2022/08/02 02:28:10;;;;;;;;;6.00;5.67;;;;;24.91;65.33;101600.03;5030873;28;46348;-66
2022/08/02 02:30:38;;;;;;;;;5.33;5.33;;;;;24.90;65.37;101601.94;5022461;28;45434;-66
2022/08/02 02:33:06;;;;;;;;;5.00;4.67;;;;;24.92;65.83;101605.34;5033406;28;45310;-67
2022/08/02 02:35:35;;;;;;;;;4.67;4.67;;;;;24.92;65.30;101599.78;5023615;28;45564;-66
2022/08/02 02:38:03;;;;;;;;;4.00;4.00;;;;;24.98;64.41;101600.84;5035107;28;45419;-66
2022/08/02 02:40:30;;;;;;;;;5.33;5.00;;;;;24.99;64.74;101599.75;5027394;28;45383;-66
2022/08/02 02:42:59;;;;;;;;;5.00;5.00;;;;;24.90;64.34;101595.50;5037535;28;45414;-66
2022/08/02 02:45:27;;;;;;;;;4.67;4.67;;;;;24.85;63.87;101587.81;5028103;28;45422;-66
2022/08/02 02:47:54;;;;;;;;;4.33;4.33;;;;;24.88;63.98;101595.72;5037155;28;45310;-66
2022/08/02 02:50:21;;;;;;;;;3.33;3.33;;;;;24.95;63.04;101592.94;5030201;28;45404;-66
2022/08/02 02:52:47;;;;;;;;;5.33;5.33;;;;;24.97;63.27;101590.78;5025071;28;45541;-67
2022/08/02 02:55:13;;;;;;;;;3.67;3.67;;;;;24.92;63.39;101588.66;5027004;28;45971;-66
2022/08/02 02:57:40;;;;;;;;;4.00;4.00;;;;;24.90;63.31;101595.50;5017349;28;46631;-67
2022/08/02 03:00:09;;;;;;;;;4.00;4.00;;;;;24.88;63.42;101592.09;5025213;28;45418;-66
2022/08/02 03:02:37;;;;;;;;;4.00;4.00;;;;;24.86;62.99;101592.31;5024240;28;45240;-66
2022/08/02 03:05:04;;;;;;;;;5.33;5.33;;;;;24.88;62.67;101584.59;5024912;28;45307;-67
2022/08/02 03:07:32;;;;;;;;;4.33;4.33;;;;;24.87;63.01;101584.81;5021173;28;45513;-66
2022/08/02 03:09:58;;;;;;;;;3.67;3.67;;;;;24.79;63.12;101589.56;5018208;28;45334;-66
2022/08/02 03:12:25;;;;;;;;;5.00;5.00;;;;;24.78;62.77;101592.56;5034349;28;45316;-66
2022/08/02 03:14:50;;;;;;;;;5.33;4.33;;;;;24.57;62.09;101601.19;5026943;28;45613;-66
2022/08/02 03:17:15;;;;;;;;;9.00;5.67;;;;;24.62;63.74;101593.09;5020770;28;47247;-66
2022/08/02 03:19:41;;;;;;;;;6.00;6.00;;;;;24.64;63.46;101597.31;5025386;28;45300;-66
2022/08/02 03:22:06;;;;;;;;;5.67;5.67;;;;;24.67;62.67;101591.34;5033254;28;45549;-66
2022/08/02 03:24:31;;;;;;;;;4.33;4.33;;;;;24.70;63.28;101596.44;5024140;28;45371;-66
2022/08/02 03:26:57;;;;;;;;;4.00;4.00;;;;;24.66;63.13;101583.22;5033207;28;46787;-66
2022/08/02 03:29:22;;;;;;;;;6.67;6.67;;;;;24.71;62.83;101581.47;5023936;28;45325;-66
2022/08/02 03:31:48;;;;;;;;;4.00;4.00;;;;;24.78;61.79;101585.06;5032666;28;45527;-66
2022/08/02 03:34:14;;;;;;;;;5.00;5.00;;;;;24.82;62.27;101589.13;5029182;28;45294;-67
2022/08/02 03:36:41;;;;;;;;;5.00;5.00;;;;;24.79;62.35;101586.78;5028448;28;45377;-67
2022/08/02 03:39:06;;;;;;;;;8.00;6.00;;;;;24.75;62.94;101584.69;5030399;28;45403;-67
2022/08/02 03:41:35;;;;;;;;;8.00;7.00;;;;;24.76;63.25;101592.81;5045967;28;45438;-67
2022/08/02 03:44:03;;;;;;;;;5.33;5.33;;;;;24.72;63.57;101588.75;5032538;28;45318;-66
2022/08/02 03:46:30;;;;;;;;;10.00;7.00;;;;;24.71;63.50;101586.16;5028300;28;45356;-66
2022/08/02 03:48:57;;;;;;;;;7.33;4.67;;;;;24.77;62.80;101575.03;5031220;28;45321;-66
2022/08/02 03:51:22;;;;;;;;;6.00;6.00;;;;;24.77;62.50;101580.59;5026474;28;45562;-67
2022/08/02 03:53:48;;;;;;;;;5.00;5.00;;;;;24.74;63.10;101575.47;5029196;28;45446;-66
2022/08/02 03:56:15;;;;;;;;;6.00;6.00;;;;;24.74;62.89;101581.03;5024152;28;45259;-66
2022/08/02 03:58:40;;;;;;;;;6.00;6.00;;;;;24.75;63.19;101577.19;5025843;28;45398;-66
2022/08/02 04:01:06;;;;;;;;;5.00;5.00;;;;;24.71;62.70;101567.56;5015370;28;45687;-67
2022/08/02 04:03:31;;;;;;;;;7.00;7.00;;;;;24.75;62.55;101576.34;5021432;28;45662;-67
2022/08/02 04:05:57;;;;;;;;;4.00;4.00;;;;;24.74;62.75;101571.84;5024827;28;46203;-66
2022/08/02 04:08:22;;;;;;;;;7.67;7.00;;;;;24.81;63.03;101576.28;5015996;28;45297;-67
2022/08/02 04:13:35;;;;;;;;;5.67;5.67;;;;;24.76;62.25;101578.91;5026239;28;45411;-66
2022/08/02 04:16:14;;;;;;;;;7.67;7.67;;;;;24.75;62.51;101577.19;5027562;28;47230;-66
2022/08/02 04:18:56;;;;;;;;;7.00;5.67;;;;;24.74;62.57;101572.69;5010425;28;45497;-67
2022/08/02 04:21:27;;;;;;;;;7.00;5.67;;;;;24.70;62.93;101567.78;5033623;28;45319;-66
2022/08/02 04:23:55;;;;;;;;;8.00;8.00;;;;;24.65;62.47;101562.06;5018927;28;45379;-66
2022/08/02 04:26:21;;;;;;;;;5.00;5.00;;;;;24.70;62.67;101574.19;5030456;28;46389;-66
2022/08/02 04:28:48;;;;;;;;;8.33;7.00;;;;;24.70;62.61;101568.66;5023276;28;45306;-66
2022/08/02 04:31:16;;;;;;;;;5.33;5.33;;;;;24.69;62.41;101572.50;5028045;28;45399;-66
2022/08/02 04:33:41;;;;;;;;;7.67;7.67;;;;;24.66;62.32;101578.50;5030962;28;45338;-66
2022/08/02 04:36:07;;;;;;;;;7.33;7.33;;;;;24.62;63.03;101582.78;5025478;28;46241;-67
2022/08/02 04:38:33;;;;;;;;;7.00;7.00;;;;;24.64;62.63;101575.09;5030814;28;45310;-67
2022/08/02 04:40:58;;;;;;;;;7.00;6.00;;;;;24.67;62.84;101580.22;5033562;28;45702;-67
2022/08/02 04:43:23;;;;;;;;;10.67;8.33;;;;;24.67;62.98;101585.78;5030213;28;45387;-67
2022/08/02 04:45:52;;;;;;;;;6.00;6.00;;;;;24.47;64.16;101582.25;5030306;28;46120;-67
2022/08/02 04:48:17;;;;;;;;;11.00;10.00;;;;;24.49;64.58;101574.50;5024348;28;45834;-68
2022/08/02 04:50:43;;;;;;;;;9.00;8.00;;;;;24.37;65.22;101570.72;5027623;28;45359;-68
2022/08/02 04:53:08;;;;;;;;;8.33;8.33;;;;;24.28;66.15;101586.78;5027429;28;45541;-67
2022/08/02 04:55:33;;;;;;;;;9.33;8.00;;;;;24.24;65.88;101574.41;5027270;28;45489;-67
2022/08/02 04:57:59;;;;;;;;;8.33;8.00;;;;;24.35;65.61;101575.63;5021244;28;45409;-67
2022/08/02 05:00:26;;;;;;;;;10.00;9.00;;;;;24.21;65.76;101573.97;5027606;28;45345;-66
2022/08/02 05:02:52;;;;;;;;;7.00;6.33;;;;;24.23;65.89;101585.72;5016298;28;45534;-67
2022/08/02 05:05:17;;;;;;;;;6.67;6.67;;;;;24.42;64.47;101587.56;5024082;28;45431;-67
2022/08/02 05:07:43;;;;;;;;;8.00;8.00;;;;;24.50;64.14;101584.56;5017431;28;45316;-67
2022/08/02 05:10:08;;;;;;;;;5.00;5.00;;;;;24.60;62.72;101578.53;5020274;28;45296;-67
2022/08/02 05:12:34;;;;;;;;;8.33;7.33;;;;;24.71;62.83;101584.25;5020670;28;45376;-68
2022/08/02 05:14:59;;;;;;;;;8.33;7.67;;;;;24.67;63.08;101587.69;5013171;28;47855;-68
2022/08/02 05:17:24;;;;;;;;;11.67;8.00;;;;;24.65;63.04;101582.34;5031652;28;45260;-68
2022/08/02 05:19:50;;;;;;;;;8.00;8.00;;;;;24.73;62.23;101584.88;5024504;28;45307;-68
2022/08/02 05:22:15;;;;;;;;;11.00;8.00;;;;;24.78;61.88;101578.66;5029819;28;45244;-68
2022/08/02 05:24:40;;;;;;;;;7.33;6.00;;;;;25.27;60.28;101583.53;5021698;28;47168;-68
2022/08/02 05:27:06;;;;;;;;;7.00;7.00;;;;;25.92;57.75;101589.66;5030723;28;45876;-66
2022/08/02 05:29:31;;;;;;;;;11.00;10.33;;;;;25.64;58.72;101592.06;5022335;28;47375;-67
2022/08/02 05:31:57;;;;;;;;;10.33;10.33;;;;;25.26;60.88;101589.31;5027220;28;45243;-67
2022/08/02 05:34:22;;;;;;;;;6.00;6.00;;;;;25.10;61.04;101596.25;5021341;28;47395;-68
2022/08/02 05:36:47;;;;;;;;;10.00;8.67;;;;;25.10;61.91;101599.03;5027403;28;45273;-67
2022/08/02 05:39:13;;;;;;;;;9.33;7.67;;;;;24.86;62.64;101589.53;5025433;28;45413;-68
2022/08/02 05:41:38;;;;;;;;;8.33;8.33;;;;;24.65;63.08;101596.25;5026880;28;45641;-68
2022/08/02 05:44:03;;;;;;;;;6.67;6.67;;;;;24.69;62.95;101594.72;5026755;28;45414;-67
2022/08/02 05:46:29;;;;;;;;;8.00;5.67;;;;;24.95;61.10;101576.25;5026407;28;45413;-67
2022/08/02 05:48:54;;;;;;;;;7.00;5.00;;;;;25.32;59.64;101583.69;5031473;28;45326;-67
2022/08/02 05:51:34;;;;;;;;;5.67;4.00;;;;;25.47;59.28;101578.66;5032199;28;45248;-67
2022/08/02 05:54:19;;;;;;;;;8.00;6.67;;;;;26.31;55.56;101600.38;5015594;28;46843;-67
2022/08/02 05:56:59;;;;;;;;;12.00;8.33;;;;;25.90;57.07;101608.50;5028714;28;45399;-66
2022/08/02 05:59:54;;;;;;;;;6.00;6.00;;;;;25.75;57.78;101596.88;5022325;28;45244;-67
2022/08/02 06:02:35;;;;;;;;;7.33;5.67;;;;;25.90;57.64;101594.59;5017236;28;45277;-67
2022/08/02 06:05:07;;;;;;;;;6.67;6.67;;;;;25.98;56.60;101584.00;5025762;28;46220;-68
2022/08/02 06:07:35;;;;;;;;;5.00;5.00;;;;;25.94;56.45;101590.25;5018935;28;45546;-68
2022/08/02 06:10:04;;;;;;;;;5.33;5.33;;;;;25.84;57.52;101592.72;5016690;28;45463;-67
2022/08/02 06:12:31;;;;;;;;;5.33;5.00;;;;;26.05;57.22;101589.50;5029722;28;45355;-68
2022/08/02 06:14:58;;;;;;;;;5.67;5.00;;;;;26.28;55.99;101600.00;5023088;28;48248;-67
2022/08/02 06:17:24;;;;;;;;;6.00;4.33;;;;;26.42;54.65;101595.97;5021664;28;45410;-68
2022/08/02 06:19:52;;;;;;;;;6.33;6.33;;;;;26.59;54.44;101601.78;5026339;28;45335;-68
2022/08/02 06:22:18;;;;;;;;;4.00;4.00;;;;;26.65;53.80;101596.13;5020350;28;45497;-68
2022/08/02 06:24:45;;;;;;;;;6.67;6.67;;;;;26.70;53.87;101590.69;5022625;28;46231;-68
2022/08/02 06:27:14;;;;;;;;;6.33;6.33;;;;;26.57;54.93;101601.16;5025092;28;45345;-67
2022/08/02 06:29:43;;;;;;;;;7.67;7.00;;;;;26.84;53.16;101599.72;5040519;28;45306;-68
2022/08/02 06:32:09;;;;;;;;;7.67;7.67;;;;;27.26;51.81;101599.78;5032229;28;45247;-67
2022/08/02 06:34:39;;;;;;;;;7.00;6.00;;;;;27.20;52.00;101614.69;5029827;28;46239;-67
2022/08/02 06:37:12;;;;;;;;;6.00;6.00;;;;;27.07;52.40;101611.03;5031344;28;45342;-67
2022/08/02 06:39:50;;;;;;;;;4.33;4.00;;;;;26.96;51.91;101602.59;5027523;28;45548;-67
2022/08/02 06:42:31;;;;;;;;;4.00;4.00;;;;;27.05;52.27;101615.97;5033230;28;45653;-67
2022/08/02 06:44:56;;;;;;;;;5.67;5.00;;;;;27.19;51.50;101607.41;5025826;28;45889;-67
2022/08/02 06:47:22;;;;;;;;;5.33;4.00;;;;;27.24;51.30;101613.16;5031409;28;45563;-68
2022/08/02 06:49:47;;;;;;;;;4.67;4.67;;;;;27.22;50.95;101606.94;5023499;28;46026;-68
2022/08/02 06:52:13;;;;;;;;;4.00;4.00;;;;;27.29;51.06;101607.69;5024854;28;45539;-67
2022/08/02 06:54:40;;;;;;;;;6.00;5.33;;;;;27.21;50.50;101610.81;5028140;28;47103;-67
2022/08/02 06:57:07;;;;;;;;;4.67;4.33;;;;;27.01;51.21;101611.97;5023971;28;45430;-67
2022/08/02 06:59:32;;;;;;;;;4.33;4.33;;;;;27.05;50.74;101613.19;5024378;28;45460;-67
2022/08/02 07:01:58;;;;;;;;;9.00;9.00;;;;;26.72;51.71;101623.91;5023917;28;45501;-67
2022/08/02 07:04:24;;;;;;;;;4.00;4.00;;;;;27.15;50.77;101625.72;5023020;28;45644;-67
2022/08/02 07:06:49;;;;;;;;;5.33;5.33;;;;;26.88;50.42;101631.66;5023097;28;45344;-67
2022/08/02 07:09:14;;;;;;;;;8.00;7.00;;;;;26.58;51.31;101622.38;5007756;28;45377;-67
2022/08/02 07:11:40;;;;;;;;;8.67;8.67;;;;;26.61;51.60;101619.13;5033689;28;45434;-68
2022/08/02 07:14:05;;;;;;;;;7.00;5.33;;;;;26.76;51.45;101622.34;5022137;28;45921;-66
2022/08/02 07:16:31;;;;;;;;;6.00;6.00;;;;;26.72;51.02;101629.50;5025530;28;45299;-68
2022/08/02 07:18:57;;;;;;;;;6.33;5.00;;;;;26.85;51.20;101612.59;5023641;28;45441;-67
2022/08/02 07:21:23;;;;;;;;;4.67;4.67;;;;;26.89;51.22;101612.94;5025462;28;45577;-68
2022/08/02 07:23:48;;;;;;;;;5.33;5.33;;;;;26.82;50.95;101624.19;5019524;28;47170;-67
2022/08/02 07:26:13;;;;;;;;;5.67;5.67;;;;;26.80;51.75;101625.53;5024115;28;45422;-67
2022/08/02 07:28:38;;;;;;;;;4.00;4.00;;;;;26.88;51.90;101628.88;5023598;28;45275;-67
2022/08/02 07:31:04;;;;;;;;;6.67;6.67;;;;;27.12;50.72;101635.41;5017469;28;45483;-67
2022/08/02 07:33:29;;;;;;;;;5.00;5.00;;;;;27.44;50.13;101636.03;5023426;28;46475;-68
2022/08/02 07:35:56;;;;;;;;;4.67;4.67;;;;;27.62;49.60;101624.78;5021072;28;45401;-67
2022/08/02 07:38:23;;;;;;;;;5.33;4.33;;;;;27.70;48.83;101621.66;5032657;28;45345;-67
2022/08/02 07:40:49;;;;;;;;;6.33;5.00;;;;;27.65;48.53;101618.75;5029425;28;45313;-67
2022/08/02 07:43:14;;;;;;;;;4.67;4.00;;;;;27.29;49.51;101639.25;5033027;28;46004;-66
2022/08/02 07:45:40;;;;;;;;;4.00;4.00;;;;;27.28;49.53;101628.31;5027954;28;45386;-67
2022/08/02 07:48:07;;;;;;;;;5.00;5.00;;;;;27.31;49.02;101625.06;5031939;28;45243;-66
2022/08/02 07:50:33;;;;;;;;;7.33;4.67;;;;;27.15;49.97;101626.59;5026954;28;45294;-66
2022/08/02 07:52:58;;;;;;;;;8.00;7.33;;;;;27.13;49.83;101626.81;5025857;28;46292;-66
2022/08/02 07:55:24;;;;;;;;;5.67;4.00;;;;;27.36;49.13;101626.03;5025686;28;45247;-66
2022/08/02 07:57:51;;;;;;;;;3.00;3.00;;;;;27.76;48.64;101626.28;5023235;28;45414;-66
2022/08/02 08:00:16;;;;;;;;;5.00;3.00;;;;;28.11;47.94;101625.47;5025976;28;45491;-66
2022/08/02 08:02:42;;;;;;;;;7.33;6.00;;;;;28.01;47.31;101625.22;5018084;28;45326;-66
2022/08/02 08:05:08;;;;;;;;;6.33;5.00;;;;;27.96;47.75;101625.94;5018712;28;45454;-66
2022/08/02 08:07:33;;;;;;;;;6.00;6.00;;;;;28.24;46.82;101630.81;5027989;28;45298;-67
2022/08/02 08:09:59;;;;;;;;;5.00;5.00;;;;;28.45;46.31;101619.00;5014421;28;45342;-67
2022/08/02 08:12:25;;;;;;;;;5.00;5.00;;;;;28.47;45.63;101624.38;5017265;28;46964;-67
2022/08/02 08:14:50;;;;;;;;;5.33;5.33;;;;;28.46;45.28;101620.72;5024780;28;45280;-67
2022/08/02 08:17:16;;;;;;;;;6.00;6.00;;;;;28.59;45.26;101626.03;5019658;28;45354;-67
2022/08/02 08:19:41;;;;;;;;;5.00;5.00;;;;;28.63;45.10;101624.47;5023980;28;45430;-67
2022/08/02 08:22:07;;;;;;;;;2.33;2.33;;;;;28.67;44.71;101616.41;5016950;28;45808;-67
2022/08/02 08:24:32;;;;;;;;;4.00;4.00;;;;;28.93;44.31;101615.03;5021169;28;45582;-67
2022/08/02 08:26:57;;;;;;;;;5.00;4.00;;;;;28.96;44.13;101611.72;5027608;28;45326;-67
2022/08/02 08:29:23;;;;;;;;;4.00;4.00;;;;;28.80;44.43;101615.31;5022375;28;45275;-67
2022/08/02 08:31:48;;;;;;;;;6.00;4.67;;;;;29.28;43.43;101607.34;5027738;28;46462;-67
2022/08/02 08:34:14;;;;;;;;;4.00;4.00;;;;;29.57;43.13;101612.91;5027399;28;45398;-67
2022/08/02 08:36:40;;;;;;;;;1.00;1.00;;;;;29.93;42.63;101609.63;5028638;28;45349;-67
2022/08/02 08:39:05;;;;;;;;;4.00;4.00;;;;;30.31;41.56;101605.16;5029384;28;45379;-67
2022/08/02 08:41:31;;;;;;;;;8.33;7.00;;;;;30.03;40.79;101601.38;5028922;28;45426;-67
2022/08/02 08:43:58;;;;;;;;;4.67;3.67;;;;;29.76;41.07;101600.34;5030503;28;45395;-68
2022/08/02 08:46:33;;;;;;;;;4.00;4.00;;;;;29.49;41.96;101596.53;5026510;28;45459;-66
2022/08/02 08:49:02;;;;;;;;;6.33;5.00;;;;;29.79;41.45;101608.25;5012514;28;45331;-67
2022/08/02 08:51:34;;;;;;;;;6.00;5.00;;;;;30.05;40.53;101598.31;5023000;28;46437;-66
2022/08/02 08:54:03;;;;;;;;;6.33;5.00;;;;;30.07;40.33;101599.75;5014228;28;46120;-67
2022/08/02 08:56:32;;;;;;;;;4.33;4.33;;;;;30.34;40.20;101610.22;5017717;28;45360;-67
2022/08/02 08:58:57;;;;;;;;;8.33;6.00;;;;;30.30;39.95;101603.47;5020880;28;45446;-67
2022/08/02 09:01:23;;;;;;;;;5.33;5.00;;;;;30.73;39.75;101599.84;5017265;28;46370;-67
2022/08/02 09:03:48;;;;;;;;;6.00;6.00;;;;;30.43;40.06;101608.69;5019229;28;45547;-68
2022/08/02 09:06:14;;;;;;;;;4.00;4.00;;;;;30.55;39.23;101603.81;5024353;28;45357;-68
2022/08/02 09:08:39;;;;;;;;;5.00;5.00;;;;;30.71;39.56;101600.09;5022301;28;45495;-68
2022/08/02 09:11:16;;;;;;;;;5.67;5.33;;;;;30.79;38.98;101607.22;5024929;28;45406;-68
2022/08/02 09:13:49;;;;;;;;;4.67;4.67;;;;;31.03;39.70;101608.63;5019775;28;45389;-67
2022/08/02 09:16:15;;;;;;;;;4.33;4.33;;;;;31.33;37.43;101594.09;5016724;28;45320;-68
2022/08/02 09:18:45;;;;;;;;;6.33;5.67;;;;;31.43;38.16;101597.00;5018739;28;45485;-67
2022/08/02 09:21:11;;;;;;;;;7.00;7.00;;;;;31.14;37.65;101593.63;5022810;28;46506;-68
2022/08/02 09:23:42;;;;;;;;;6.67;5.67;;;;;31.13;37.95;101591.06;5028515;28;45541;-67
2022/08/02 09:26:10;;;;;;;;;4.00;4.00;;;;;31.17;38.15;101589.44;5035295;28;45458;-67
2022/08/02 09:28:38;;;;;;;;;5.33;5.33;;;;;31.48;37.97;101588.63;5033090;28;45308;-66
2022/08/02 09:31:03;;;;;;;;;5.33;5.33;;;;;31.92;37.12;101589.31;5028839;28;45551;-66
2022/08/02 09:33:29;;;;;;;;;5.33;4.00;;;;;32.23;37.09;101581.94;5032893;28;45315;-67
2022/08/02 09:36:03;;;;;;;;;4.67;4.67;;;;;32.76;36.04;101588.41;5030559;28;45374;-66
2022/08/02 09:38:29;;;;;;;;;4.00;4.00;;;;;32.21;35.64;101587.00;5034206;28;45533;-66
2022/08/02 09:40:56;;;;;;;;;6.00;6.00;;;;;32.63;35.82;101572.00;5031247;28;46537;-66
2022/08/02 09:43:34;;;;;;;;;6.00;6.00;;;;;32.36;35.69;101587.09;5034931;28;45507;-66
2022/08/02 09:46:10;;;;;;;;;5.00;5.00;;;;;32.60;35.57;101580.97;5029913;28;45314;-66
2022/08/02 09:48:56;;;;;;;;;4.67;4.67;;;;;32.78;36.13;101577.72;5029507;28;45417;-67
2022/08/02 09:51:34;;;;;;;;;4.00;4.00;;;;;32.68;34.98;101580.50;5026418;28;45495;-66
2022/08/02 09:54:02;;;;;;;;;7.67;6.67;;;;;32.44;34.74;101580.06;5013689;28;45481;-68
2022/08/02 09:56:38;;;;;;;;;4.33;3.00;;;;;32.52;34.84;101575.88;5022914;28;45458;-66
2022/08/02 09:59:08;;;;;;;;;7.00;7.00;;;;;32.85;34.72;101581.13;5014195;28;45255;-67
2022/08/02 10:01:34;;;;;;;;;6.67;6.67;;;;;33.19;33.99;101576.69;5022944;28;45559;-67
2022/08/02 10:04:05;;;;;;;;;5.00;5.00;;;;;33.83;34.40;101564.94;5021494;28;45415;-68
2022/08/02 10:06:31;;;;;;;;;4.00;4.00;;;;;34.46;33.24;101562.56;5038710;28;45410;-67
2022/08/02 10:08:57;;;;;;;;;6.00;6.00;;;;;34.65;31.75;101566.41;5008985;28;45406;-67
2022/08/02 10:11:25;;;;;;;;;8.33;6.67;;;;;34.66;31.02;101561.63;5032558;28;45309;-67
2022/08/02 10:13:51;;;;;;;;;6.00;6.00;;;;;34.90;31.13;101564.63;5023853;28;45485;-67
2022/08/02 10:16:22;;;;;;;;;8.00;8.00;;;;;34.83;31.71;101558.47;5022972;28;45391;-66
2022/08/02 10:18:47;;;;;;;;;4.00;4.00;;;;;35.25;31.07;101561.59;5022887;28;45315;-66
2022/08/02 10:21:29;;;;;;;;;6.00;4.00;;;;;34.41;30.38;101561.75;5023829;28;45545;-67
2022/08/02 10:24:04;;;;;;;;;5.00;4.33;;;;;34.05;31.60;101560.94;5018985;28;45207;-67
2022/08/02 10:26:30;;;;;;;;;5.00;5.00;;;;;34.64;31.17;101570.34;5026464;28;45388;-67
2022/08/02 10:28:55;;;;;;;;;4.33;4.00;;;;;34.28;31.01;101554.72;5030860;28;45548;-67
2022/08/02 10:31:26;;;;;;;;;6.67;5.00;;;;;33.94;31.57;101566.63;5027706;28;46135;-65
2022/08/02 10:33:54;;;;;;;;;4.00;4.00;;;;;33.83;31.42;101564.94;5032955;28;45459;-66
2022/08/02 10:36:22;;;;;;;;;4.00;4.00;;;;;34.29;31.90;101564.88;5040556;28;45311;-67
2022/08/02 10:38:48;;;;;;;;;5.67;5.67;;;;;35.29;30.01;101561.88;5033482;28;45536;-67
2022/08/02 10:41:14;;;;;;;;;3.67;2.67;;;;;36.03;29.43;101547.34;5017323;28;47296;-67
2022/08/02 10:43:42;;;;;;;;;4.00;4.00;;;;;36.51;27.66;101553.03;5032658;28;45268;-69
2022/08/02 10:46:34;;;;;;;;;7.67;6.00;;;;;36.82;27.00;101553.50;5029478;28;45401;-67
2022/08/02 10:49:10;;;;;;;;;3.67;3.67;;;;;36.14;28.25;101551.75;5014976;28;45398;-67
2022/08/02 10:51:54;;;;;;;;;5.33;4.00;;;;;36.30;26.75;101557.28;5026571;28;45379;-67
2022/08/02 10:54:28;;;;;;;;;4.00;4.00;;;;;35.76;27.53;101547.91;5024692;28;45477;-68
2022/08/02 10:56:55;;;;;;;;;3.67;3.67;;;;;36.11;26.10;101551.50;5026566;28;45366;-67
2022/08/02 10:59:34;;;;;;;;;2.67;2.67;;;;;35.88;26.00;101551.16;5022156;28;45497;-68
2022/08/02 11:02:01;;;;;;;;;5.00;5.00;;;;;36.02;26.36;101542.81;5024347;28;45463;-67
2022/08/02 11:04:29;;;;;;;;;8.00;5.33;;;;;36.06;24.28;101552.41;5016823;28;45254;-67
2022/08/02 11:07:13;;;;;;;;;2.00;2.00;;;;;35.95;25.73;101544.31;5038876;28;45322;-67
2022/08/02 11:09:40;;;;;;;;;4.00;4.00;;;;;36.40;24.41;101545.81;5018252;28;45497;-67
2022/08/02 11:12:14;;;;;;;;;2.00;2.00;;;;;36.44;25.28;101539.25;5029102;28;45598;-66
2022/08/02 11:14:42;;;;;;;;;3.00;3.00;;;;;37.33;25.05;101539.44;5011480;28;45492;-67
2022/08/02 11:17:08;;;;;;;;;4.00;4.00;;;;;37.43;24.08;101542.06;5018162;28;45506;-67
2022/08/02 11:19:35;;;;;;;;;5.00;4.67;;;;;37.57;23.44;101536.44;5023829;28;45342;-67
2022/08/02 11:22:03;;;;;;;;;4.67;3.67;;;;;36.45;24.45;101540.09;5020208;28;46230;-66
2022/08/02 11:24:30;;;;;;;;;4.00;4.00;;;;;36.72;25.06;101520.50;5021256;28;45383;-67
2022/08/02 11:26:58;;;;;;;;;4.33;4.33;;;;;35.99;24.81;101534.94;5031013;28;45546;-67
2022/08/02 11:29:32;;;;;;;;;4.00;4.00;;;;;36.21;25.11;101529.63;5027416;28;45596;-67
2022/08/02 11:31:58;;;;;;;;;4.00;3.00;;;;;36.38;24.95;101520.66;5033227;28;46446;-67